sensor_id;sensor_type;location;lat;lon;timestamp;P1;durP1;ratioP1;P2;durP2;ratioP2
12818;SDS011;6474;53.474;9.894;2022-07-22T00:01:03;4.18;;;3.78;;
12818;SDS011;6474;53.474;9.894;2022-07-22T00:03:31;3.35;;;3.05;;
12818;SDS011;6474;53.474;9.894;2022-07-22T00:05:59;4.10;;;3.80;;
12818;SDS011;6474;53.474;9.894;2022-07-22T00:08:27;4.40;;;4.10;;
12818;SDS011;6474;53.474;9.894;2022-07-22T00:10:56;4.47;;;4.07;;
12818;SDS011;6474;53.474;9.894;2022-07-22T00:13:24;4.13;;;3.78;;
12818;SDS011;6474;53.474;9.894;2022-07-22T00:15:52;3.67;;;3.50;;
12818;SDS011;6474;53.474;9.894;2022-07-22T00:18:20;4.00;;;3.70;;
12818;SDS011;6474;53.474;9.894;2022-07-22T00:20:47;2.95;;;2.28;;
12818;SDS011;6474;53.474;9.894;2022-07-22T00:23:15;2.13;;;2.03;;
12818;SDS011;6474;53.474;9.894;2022-07-22T00:25:43;1.60;;;1.60;;
12818;SDS011;6474;53.474;9.894;2022-07-22T00:28:12;1.58;;;1.58;;
12818;SDS011;6474;53.474;9.894;2022-07-22T00:30:40;2.50;;;1.48;;
12818;SDS011;6474;53.474;9.894;2022-07-22T00:33:09;1.17;;;1.17;;
12818;SDS011;6474;53.474;9.894;2022-07-22T00:35:37;0.75;;;0.75;;
12818;SDS011;6474;53.474;9.894;2022-07-22T00:38:08;0.80;;;0.80;;
12818;SDS011;6474;53.474;9.894;2022-07-22T00:40:36;0.75;;;0.75;;
12818;SDS011;6474;53.474;9.894;2022-07-22T00:43:04;0.60;;;0.60;;
12818;SDS011;6474;53.474;9.894;2022-07-22T00:45:33;0.68;;;0.68;;
12818;SDS011;6474;53.474;9.894;2022-07-22T00:48:01;0.60;;;0.60;;
12818;SDS011;6474;53.474;9.894;2022-07-22T00:50:29;0.38;;;0.38;;
12818;SDS011;6474;53.474;9.894;2022-07-22T00:52:57;0.30;;;0.30;;
12818;SDS011;6474;53.474;9.894;2022-07-22T00:55:25;0.43;;;0.43;;
12818;SDS011;6474;53.474;9.894;2022-07-22T00:57:53;0.38;;;0.38;;
12818;SDS011;6474;53.474;9.894;2022-07-22T01:00:21;1.17;;;0.77;;
12818;SDS011;6474;53.474;9.894;2022-07-22T01:02:51;0.50;;;0.50;;
12818;SDS011;6474;53.474;9.894;2022-07-22T01:05:19;0.52;;;0.52;;
12818;SDS011;6474;53.474;9.894;2022-07-22T01:07:47;0.40;;;0.40;;
12818;SDS011;6474;53.474;9.894;2022-07-22T01:10:15;0.70;;;0.70;;
12818;SDS011;6474;53.474;9.894;2022-07-22T01:12:43;0.32;;;0.32;;
12818;SDS011;6474;53.474;9.894;2022-07-22T01:15:10;0.50;;;0.50;;
12818;SDS011;6474;53.474;9.894;2022-07-22T01:17:38;0.50;;;0.50;;
12818;SDS011;6474;53.474;9.894;2022-07-22T01:20:08;0.60;;;0.60;;
12818;SDS011;6474;53.474;9.894;2022-07-22T01:22:37;0.52;;;0.52;;
12818;SDS011;6474;53.474;9.894;2022-07-22T01:25:04;0.40;;;0.40;;
12818;SDS011;6474;53.474;9.894;2022-07-22T01:27:33;0.60;;;0.60;;
12818;SDS011;6474;53.474;9.894;2022-07-22T01:30:01;0.60;;;0.60;;
12818;SDS011;6474;53.474;9.894;2022-07-22T01:32:29;0.40;;;0.40;;
12818;SDS011;6474;53.474;9.894;2022-07-22T01:35:00;0.85;;;0.70;;
12818;SDS011;6474;53.474;9.894;2022-07-22T01:37:31;0.70;;;0.70;;
12818;SDS011;6474;53.474;9.894;2022-07-22T01:40:00;1.25;;;0.70;;
12818;SDS011;6474;53.474;9.894;2022-07-22T01:42:28;0.70;;;0.70;;
12818;SDS011;6474;53.474;9.894;2022-07-22T01:44:56;0.90;;;0.90;;
12818;SDS011;6474;53.474;9.894;2022-07-22T01:47:24;0.60;;;0.60;;
12818;SDS011;6474;53.474;9.894;2022-07-22T01:49:52;0.68;;;0.68;;
12818;SDS011;6474;53.474;9.894;2022-07-22T01:52:19;2.80;;;0.95;;
12818;SDS011;6474;53.474;9.894;2022-07-22T01:54:49;0.95;;;0.95;;
12818;SDS011;6474;53.474;9.894;2022-07-22T01:57:16;1.77;;;0.90;;
12818;SDS011;6474;53.474;9.894;2022-07-22T01:59:44;0.77;;;0.77;;
12818;SDS011;6474;53.474;9.894;2022-07-22T02:02:12;1.00;;;1.00;;
12818;SDS011;6474;53.474;9.894;2022-07-22T02:04:40;0.70;;;0.70;;
12818;SDS011;6474;53.474;9.894;2022-07-22T02:07:08;0.80;;;0.80;;
12818;SDS011;6474;53.474;9.894;2022-07-22T02:09:38;0.70;;;0.70;;
12818;SDS011;6474;53.474;9.894;2022-07-22T02:12:12;0.68;;;0.68;;
12818;SDS011;6474;53.474;9.894;2022-07-22T02:14:39;0.80;;;0.80;;
12818;SDS011;6474;53.474;9.894;2022-07-22T02:17:08;2.80;;;0.90;;
12818;SDS011;6474;53.474;9.894;2022-07-22T02:19:36;0.90;;;0.90;;
12818;SDS011;6474;53.474;9.894;2022-07-22T02:22:04;0.75;;;0.75;;
12818;SDS011;6474;53.474;9.894;2022-07-22T02:24:33;0.90;;;0.90;;
12818;SDS011;6474;53.474;9.894;2022-07-22T02:27:01;0.80;;;0.80;;
12818;SDS011;6474;53.474;9.894;2022-07-22T02:29:31;1.17;;;1.17;;
12818;SDS011;6474;53.474;9.894;2022-07-22T02:31:59;0.70;;;0.70;;
12818;SDS011;6474;53.474;9.894;2022-07-22T02:34:27;2.08;;;1.05;;
12818;SDS011;6474;53.474;9.894;2022-07-22T02:36:57;0.63;;;0.63;;
12818;SDS011;6474;53.474;9.894;2022-07-22T02:39:25;0.60;;;0.60;;
12818;SDS011;6474;53.474;9.894;2022-07-22T02:41:53;1.17;;;0.98;;
12818;SDS011;6474;53.474;9.894;2022-07-22T02:44:21;0.82;;;0.82;;
12818;SDS011;6474;53.474;9.894;2022-07-22T02:46:50;0.73;;;0.73;;
12818;SDS011;6474;53.474;9.894;2022-07-22T02:49:18;0.68;;;0.68;;
12818;SDS011;6474;53.474;9.894;2022-07-22T02:51:46;0.63;;;0.63;;
12818;SDS011;6474;53.474;9.894;2022-07-22T02:54:15;1.10;;;1.00;;
12818;SDS011;6474;53.474;9.894;2022-07-22T02:56:43;0.85;;;0.85;;
12818;SDS011;6474;53.474;9.894;2022-07-22T02:59:11;0.73;;;0.73;;
12818;SDS011;6474;53.474;9.894;2022-07-22T03:01:41;0.63;;;0.60;;
12818;SDS011;6474;53.474;9.894;2022-07-22T03:04:14;0.85;;;0.85;;
12818;SDS011;6474;53.474;9.894;2022-07-22T03:06:42;0.73;;;0.73;;
12818;SDS011;6474;53.474;9.894;2022-07-22T03:09:10;0.60;;;0.60;;
12818;SDS011;6474;53.474;9.894;2022-07-22T03:11:38;0.70;;;0.70;;
12818;SDS011;6474;53.474;9.894;2022-07-22T03:14:06;0.70;;;0.70;;
12818;SDS011;6474;53.474;9.894;2022-07-22T03:16:35;0.80;;;0.55;;
12818;SDS011;6474;53.474;9.894;2022-07-22T03:19:03;1.10;;;0.73;;
12818;SDS011;6474;53.474;9.894;2022-07-22T03:21:32;1.38;;;1.15;;
12818;SDS011;6474;53.474;9.894;2022-07-22T03:24:00;2.60;;;0.75;;
12818;SDS011;6474;53.474;9.894;2022-07-22T03:26:28;1.52;;;0.77;;
12818;SDS011;6474;53.474;9.894;2022-07-22T03:28:56;1.65;;;0.77;;
12818;SDS011;6474;53.474;9.894;2022-07-22T03:31:24;0.80;;;0.80;;
12818;SDS011;6474;53.474;9.894;2022-07-22T03:33:52;0.75;;;0.75;;
12818;SDS011;6474;53.474;9.894;2022-07-22T03:36:20;0.93;;;0.80;;
12818;SDS011;6474;53.474;9.894;2022-07-22T03:38:49;1.10;;;0.60;;
12818;SDS011;6474;53.474;9.894;2022-07-22T03:41:17;1.00;;;1.00;;
12818;SDS011;6474;53.474;9.894;2022-07-22T03:43:45;1.00;;;1.00;;
12818;SDS011;6474;53.474;9.894;2022-07-22T03:46:13;0.93;;;0.93;;
12818;SDS011;6474;53.474;9.894;2022-07-22T03:48:41;1.13;;;1.00;;
12818;SDS011;6474;53.474;9.894;2022-07-22T03:51:09;0.90;;;0.90;;
12818;SDS011;6474;53.474;9.894;2022-07-22T03:53:37;1.40;;;0.65;;
12818;SDS011;6474;53.474;9.894;2022-07-22T03:56:07;2.53;;;1.40;;
12818;SDS011;6474;53.474;9.894;2022-07-22T03:58:35;1.20;;;1.20;;
12818;SDS011;6474;53.474;9.894;2022-07-22T04:01:02;1.20;;;1.20;;
12818;SDS011;6474;53.474;9.894;2022-07-22T04:03:30;1.50;;;1.35;;
12818;SDS011;6474;53.474;9.894;2022-07-22T04:05:59;1.20;;;1.13;;
12818;SDS011;6474;53.474;9.894;2022-07-22T04:08:26;0.95;;;0.95;;
12818;SDS011;6474;53.474;9.894;2022-07-22T04:10:54;2.40;;;1.00;;
12818;SDS011;6474;53.474;9.894;2022-07-22T04:13:26;0.75;;;0.75;;
12818;SDS011;6474;53.474;9.894;2022-07-22T04:15:54;1.08;;;1.00;;
12818;SDS011;6474;53.474;9.894;2022-07-22T04:18:22;2.05;;;1.00;;
12818;SDS011;6474;53.474;9.894;2022-07-22T04:20:50;1.38;;;1.00;;
12818;SDS011;6474;53.474;9.894;2022-07-22T04:23:18;1.05;;;1.05;;
12818;SDS011;6474;53.474;9.894;2022-07-22T04:25:47;1.10;;;1.10;;
12818;SDS011;6474;53.474;9.894;2022-07-22T04:28:17;0.90;;;0.90;;
12818;SDS011;6474;53.474;9.894;2022-07-22T04:30:49;0.73;;;0.73;;
12818;SDS011;6474;53.474;9.894;2022-07-22T04:33:17;1.35;;;1.13;;
12818;SDS011;6474;53.474;9.894;2022-07-22T04:35:44;0.70;;;0.70;;
12818;SDS011;6474;53.474;9.894;2022-07-22T04:38:12;1.50;;;1.10;;
12818;SDS011;6474;53.474;9.894;2022-07-22T04:40:42;0.75;;;0.75;;
12818;SDS011;6474;53.474;9.894;2022-07-22T04:43:17;1.77;;;1.00;;
12818;SDS011;6474;53.474;9.894;2022-07-22T04:45:45;0.82;;;0.82;;
12818;SDS011;6474;53.474;9.894;2022-07-22T04:48:14;2.70;;;1.20;;
12818;SDS011;6474;53.474;9.894;2022-07-22T04:50:43;3.13;;;0.70;;
12818;SDS011;6474;53.474;9.894;2022-07-22T04:53:11;2.67;;;0.80;;
12818;SDS011;6474;53.474;9.894;2022-07-22T04:55:39;0.60;;;0.60;;
12818;SDS011;6474;53.474;9.894;2022-07-22T04:58:08;2.35;;;1.08;;
12818;SDS011;6474;53.474;9.894;2022-07-22T05:00:42;1.65;;;0.80;;
12818;SDS011;6474;53.474;9.894;2022-07-22T05:03:10;0.60;;;0.60;;
12818;SDS011;6474;53.474;9.894;2022-07-22T05:05:39;0.70;;;0.70;;
12818;SDS011;6474;53.474;9.894;2022-07-22T05:08:07;1.48;;;0.88;;
12818;SDS011;6474;53.474;9.894;2022-07-22T05:10:35;0.70;;;0.70;;
12818;SDS011;6474;53.474;9.894;2022-07-22T05:13:03;0.75;;;0.75;;
12818;SDS011;6474;53.474;9.894;2022-07-22T05:15:31;0.70;;;0.70;;
12818;SDS011;6474;53.474;9.894;2022-07-22T05:18:00;1.95;;;1.27;;
12818;SDS011;6474;53.474;9.894;2022-07-22T05:20:28;0.52;;;0.50;;
12818;SDS011;6474;53.474;9.894;2022-07-22T05:22:59;0.85;;;0.85;;
12818;SDS011;6474;53.474;9.894;2022-07-22T05:25:26;0.60;;;0.60;;
12818;SDS011;6474;53.474;9.894;2022-07-22T05:27:54;1.20;;;1.20;;
12818;SDS011;6474;53.474;9.894;2022-07-22T05:30:23;0.77;;;0.77;;
12818;SDS011;6474;53.474;9.894;2022-07-22T05:32:51;0.80;;;0.80;;
12818;SDS011;6474;53.474;9.894;2022-07-22T05:35:23;0.68;;;0.68;;
12818;SDS011;6474;53.474;9.894;2022-07-22T05:37:51;1.20;;;1.08;;
12818;SDS011;6474;53.474;9.894;2022-07-22T05:40:20;2.30;;;0.60;;
12818;SDS011;6474;53.474;9.894;2022-07-22T05:42:48;1.45;;;0.93;;
12818;SDS011;6474;53.474;9.894;2022-07-22T05:45:16;0.82;;;0.82;;
12818;SDS011;6474;53.474;9.894;2022-07-22T05:47:46;0.77;;;0.77;;
12818;SDS011;6474;53.474;9.894;2022-07-22T05:50:39;3.42;;;0.90;;
12818;SDS011;6474;53.474;9.894;2022-07-22T05:53:17;1.05;;;0.95;;
12818;SDS011;6474;53.474;9.894;2022-07-22T05:56:07;3.13;;;0.80;;
12818;SDS011;6474;53.474;9.894;2022-07-22T05:58:44;0.80;;;0.80;;
12818;SDS011;6474;53.474;9.894;2022-07-22T06:01:14;0.60;;;0.60;;
12818;SDS011;6474;53.474;9.894;2022-07-22T06:04:08;1.45;;;0.80;;
12818;SDS011;6474;53.474;9.894;2022-07-22T06:06:41;0.70;;;0.68;;
12818;SDS011;6474;53.474;9.894;2022-07-22T06:09:09;0.70;;;0.70;;
12818;SDS011;6474;53.474;9.894;2022-07-22T06:11:38;0.82;;;0.82;;
12818;SDS011;6474;53.474;9.894;2022-07-22T06:14:06;2.25;;;1.10;;
12818;SDS011;6474;53.474;9.894;2022-07-22T06:16:36;0.60;;;0.60;;
12818;SDS011;6474;53.474;9.894;2022-07-22T06:19:05;0.80;;;0.80;;
12818;SDS011;6474;53.474;9.894;2022-07-22T06:21:33;5.05;;;1.10;;
12818;SDS011;6474;53.474;9.894;2022-07-22T06:24:10;0.75;;;0.75;;
12818;SDS011;6474;53.474;9.894;2022-07-22T06:26:41;0.50;;;0.50;;
12818;SDS011;6474;53.474;9.894;2022-07-22T06:29:10;1.38;;;0.90;;
12818;SDS011;6474;53.474;9.894;2022-07-22T06:31:38;0.90;;;0.90;;
12818;SDS011;6474;53.474;9.894;2022-07-22T06:34:06;0.60;;;0.60;;
12818;SDS011;6474;53.474;9.894;2022-07-22T06:36:35;3.45;;;0.95;;
12818;SDS011;6474;53.474;9.894;2022-07-22T06:39:03;0.60;;;0.60;;
12818;SDS011;6474;53.474;9.894;2022-07-22T06:41:32;0.70;;;0.70;;
12818;SDS011;6474;53.474;9.894;2022-07-22T06:44:03;0.77;;;0.77;;
12818;SDS011;6474;53.474;9.894;2022-07-22T06:46:37;1.10;;;1.10;;
12818;SDS011;6474;53.474;9.894;2022-07-22T06:49:08;1.58;;;0.77;;
12818;SDS011;6474;53.474;9.894;2022-07-22T06:51:47;0.70;;;0.70;;
12818;SDS011;6474;53.474;9.894;2022-07-22T06:54:15;0.70;;;0.65;;
12818;SDS011;6474;53.474;9.894;2022-07-22T06:56:44;0.77;;;0.77;;
12818;SDS011;6474;53.474;9.894;2022-07-22T06:59:13;1.85;;;0.70;;
12818;SDS011;6474;53.474;9.894;2022-07-22T07:01:44;3.35;;;1.52;;
12818;SDS011;6474;53.474;9.894;2022-07-22T07:04:13;1.45;;;0.70;;
12818;SDS011;6474;53.474;9.894;2022-07-22T07:06:42;0.85;;;0.85;;
12818;SDS011;6474;53.474;9.894;2022-07-22T07:09:11;0.82;;;0.82;;
12818;SDS011;6474;53.474;9.894;2022-07-22T07:11:38;0.65;;;0.65;;
12818;SDS011;6474;53.474;9.894;2022-07-22T07:14:08;0.80;;;0.80;;
12818;SDS011;6474;53.474;9.894;2022-07-22T07:16:37;0.85;;;0.85;;
12818;SDS011;6474;53.474;9.894;2022-07-22T07:19:05;0.40;;;0.40;;
12818;SDS011;6474;53.474;9.894;2022-07-22T07:21:34;0.60;;;0.60;;
12818;SDS011;6474;53.474;9.894;2022-07-22T07:24:02;0.90;;;0.90;;
12818;SDS011;6474;53.474;9.894;2022-07-22T07:26:30;0.60;;;0.60;;
12818;SDS011;6474;53.474;9.894;2022-07-22T07:29:00;3.92;;;0.95;;
12818;SDS011;6474;53.474;9.894;2022-07-22T07:31:28;0.63;;;0.63;;
12818;SDS011;6474;53.474;9.894;2022-07-22T07:33:57;3.45;;;0.82;;
12818;SDS011;6474;53.474;9.894;2022-07-22T07:36:25;0.80;;;0.80;;
12818;SDS011;6474;53.474;9.894;2022-07-22T07:38:55;2.47;;;0.70;;
12818;SDS011;6474;53.474;9.894;2022-07-22T07:41:23;0.77;;;0.77;;
12818;SDS011;6474;53.474;9.894;2022-07-22T07:43:51;1.05;;;0.93;;
12818;SDS011;6474;53.474;9.894;2022-07-22T07:46:21;0.93;;;0.93;;
12818;SDS011;6474;53.474;9.894;2022-07-22T07:48:48;0.68;;;0.68;;
12818;SDS011;6474;53.474;9.894;2022-07-22T07:51:18;1.92;;;0.90;;
12818;SDS011;6474;53.474;9.894;2022-07-22T07:53:46;9.70;;;1.00;;
12818;SDS011;6474;53.474;9.894;2022-07-22T07:56:13;0.70;;;0.70;;
12818;SDS011;6474;53.474;9.894;2022-07-22T07:58:42;1.05;;;1.05;;
12818;SDS011;6474;53.474;9.894;2022-07-22T08:01:31;0.65;;;0.65;;
12818;SDS011;6474;53.474;9.894;2022-07-22T08:04:19;1.08;;;0.60;;
12818;SDS011;6474;53.474;9.894;2022-07-22T08:07:06;0.60;;;0.60;;
12818;SDS011;6474;53.474;9.894;2022-07-22T08:09:34;0.77;;;0.77;;
12818;SDS011;6474;53.474;9.894;2022-07-22T08:12:06;0.45;;;0.45;;
12818;SDS011;6474;53.474;9.894;2022-07-22T08:14:34;0.75;;;0.68;;
12818;SDS011;6474;53.474;9.894;2022-07-22T08:17:02;0.70;;;0.70;;
12818;SDS011;6474;53.474;9.894;2022-07-22T08:19:30;0.80;;;0.77;;
12818;SDS011;6474;53.474;9.894;2022-07-22T08:22:01;0.80;;;0.80;;
12818;SDS011;6474;53.474;9.894;2022-07-22T08:24:33;0.77;;;0.77;;
12818;SDS011;6474;53.474;9.894;2022-07-22T08:27:02;0.60;;;0.60;;
12818;SDS011;6474;53.474;9.894;2022-07-22T08:29:30;0.77;;;0.77;;
12818;SDS011;6474;53.474;9.894;2022-07-22T08:32:02;2.05;;;0.75;;
12818;SDS011;6474;53.474;9.894;2022-07-22T08:34:33;0.90;;;0.80;;
12818;SDS011;6474;53.474;9.894;2022-07-22T08:37:01;0.70;;;0.70;;
12818;SDS011;6474;53.474;9.894;2022-07-22T08:39:36;0.65;;;0.65;;
12818;SDS011;6474;53.474;9.894;2022-07-22T08:42:04;0.55;;;0.55;;
12818;SDS011;6474;53.474;9.894;2022-07-22T08:44:35;0.90;;;0.60;;
12818;SDS011;6474;53.474;9.894;2022-07-22T08:47:04;0.50;;;0.50;;
12818;SDS011;6474;53.474;9.894;2022-07-22T08:49:51;0.77;;;0.77;;
12818;SDS011;6474;53.474;9.894;2022-07-22T08:52:19;1.55;;;0.63;;
12818;SDS011;6474;53.474;9.894;2022-07-22T08:55:01;0.73;;;0.70;;
12818;SDS011;6474;53.474;9.894;2022-07-22T08:57:29;0.60;;;0.60;;
12818;SDS011;6474;53.474;9.894;2022-07-22T09:00:01;0.50;;;0.50;;
12818;SDS011;6474;53.474;9.894;2022-07-22T09:02:35;0.40;;;0.40;;
12818;SDS011;6474;53.474;9.894;2022-07-22T09:05:06;0.60;;;0.60;;
12818;SDS011;6474;53.474;9.894;2022-07-22T09:07:57;0.60;;;0.60;;
12818;SDS011;6474;53.474;9.894;2022-07-22T09:10:31;4.65;;;0.95;;
12818;SDS011;6474;53.474;9.894;2022-07-22T09:13:01;0.85;;;0.85;;
12818;SDS011;6474;53.474;9.894;2022-07-22T09:15:32;0.40;;;0.40;;
12818;SDS011;6474;53.474;9.894;2022-07-22T09:18:03;0.63;;;0.63;;
12818;SDS011;6474;53.474;9.894;2022-07-22T09:20:32;0.70;;;0.70;;
12818;SDS011;6474;53.474;9.894;2022-07-22T09:23:02;0.75;;;0.75;;
12818;SDS011;6474;53.474;9.894;2022-07-22T09:25:37;0.50;;;0.50;;
12818;SDS011;6474;53.474;9.894;2022-07-22T09:28:09;0.75;;;0.75;;
12818;SDS011;6474;53.474;9.894;2022-07-22T09:30:42;0.70;;;0.70;;
12818;SDS011;6474;53.474;9.894;2022-07-22T09:33:14;1.17;;;0.50;;
12818;SDS011;6474;53.474;9.894;2022-07-22T09:35:45;0.82;;;0.82;;
12818;SDS011;6474;53.474;9.894;2022-07-22T09:38:16;0.63;;;0.63;;
12818;SDS011;6474;53.474;9.894;2022-07-22T09:40:47;0.80;;;0.55;;
12818;SDS011;6474;53.474;9.894;2022-07-22T09:43:16;0.60;;;0.60;;
12818;SDS011;6474;53.474;9.894;2022-07-22T09:45:50;0.60;;;0.55;;
12818;SDS011;6474;53.474;9.894;2022-07-22T09:48:25;1.95;;;0.38;;
12818;SDS011;6474;53.474;9.894;2022-07-22T09:50:54;0.90;;;0.52;;
12818;SDS011;6474;53.474;9.894;2022-07-22T09:53:27;0.50;;;0.50;;
12818;SDS011;6474;53.474;9.894;2022-07-22T09:55:57;0.40;;;0.40;;
12818;SDS011;6474;53.474;9.894;2022-07-22T09:58:26;0.60;;;0.60;;
12818;SDS011;6474;53.474;9.894;2022-07-22T10:00:55;0.50;;;0.50;;
12818;SDS011;6474;53.474;9.894;2022-07-22T10:03:29;0.70;;;0.70;;
12818;SDS011;6474;53.474;9.894;2022-07-22T10:05:59;0.65;;;0.60;;
12818;SDS011;6474;53.474;9.894;2022-07-22T10:08:30;0.43;;;0.43;;
12818;SDS011;6474;53.474;9.894;2022-07-22T10:11:05;0.60;;;0.60;;
12818;SDS011;6474;53.474;9.894;2022-07-22T10:13:34;1.30;;;0.60;;
12818;SDS011;6474;53.474;9.894;2022-07-22T10:16:04;0.73;;;0.73;;
12818;SDS011;6474;53.474;9.894;2022-07-22T10:18:33;0.70;;;0.70;;
12818;SDS011;6474;53.474;9.894;2022-07-22T10:21:03;0.50;;;0.50;;
12818;SDS011;6474;53.474;9.894;2022-07-22T10:23:32;0.50;;;0.50;;
12818;SDS011;6474;53.474;9.894;2022-07-22T10:26:01;1.27;;;0.70;;
12818;SDS011;6474;53.474;9.894;2022-07-22T10:28:33;0.60;;;0.60;;
12818;SDS011;6474;53.474;9.894;2022-07-22T10:31:18;0.68;;;0.68;;
12818;SDS011;6474;53.474;9.894;2022-07-22T10:33:49;0.43;;;0.43;;
12818;SDS011;6474;53.474;9.894;2022-07-22T10:36:29;0.60;;;0.60;;
12818;SDS011;6474;53.474;9.894;2022-07-22T10:39:03;0.75;;;0.75;;
12818;SDS011;6474;53.474;9.894;2022-07-22T10:41:39;0.70;;;0.70;;
12818;SDS011;6474;53.474;9.894;2022-07-22T10:44:26;1.45;;;0.82;;
12818;SDS011;6474;53.474;9.894;2022-07-22T10:53:09;0.80;;;0.80;;
12818;SDS011;6474;53.474;9.894;2022-07-22T10:55:38;0.70;;;0.70;;
12818;SDS011;6474;53.474;9.894;2022-07-22T11:01:15;0.65;;;0.65;;
12818;SDS011;6474;53.474;9.894;2022-07-22T11:03:45;0.55;;;0.55;;
12818;SDS011;6474;53.474;9.894;2022-07-22T11:06:18;0.90;;;0.82;;
12818;SDS011;6474;53.474;9.894;2022-07-22T11:08:50;0.52;;;0.52;;
12818;SDS011;6474;53.474;9.894;2022-07-22T11:11:30;0.50;;;0.50;;
12818;SDS011;6474;53.474;9.894;2022-07-22T11:14:00;0.38;;;0.38;;
12818;SDS011;6474;53.474;9.894;2022-07-22T11:16:29;0.40;;;0.40;;
12818;SDS011;6474;53.474;9.894;2022-07-22T11:18:58;1.15;;;0.60;;
12818;SDS011;6474;53.474;9.894;2022-07-22T11:21:29;1.30;;;0.98;;
12818;SDS011;6474;53.474;9.894;2022-07-22T11:24:07;0.43;;;0.43;;
12818;SDS011;6474;53.474;9.894;2022-07-22T11:26:37;0.40;;;0.40;;
12818;SDS011;6474;53.474;9.894;2022-07-22T11:29:08;0.65;;;0.50;;
12818;SDS011;6474;53.474;9.894;2022-07-22T11:31:37;0.40;;;0.40;;
12818;SDS011;6474;53.474;9.894;2022-07-22T11:34:08;0.50;;;0.50;;
12818;SDS011;6474;53.474;9.894;2022-07-22T11:36:39;0.38;;;0.38;;
12818;SDS011;6474;53.474;9.894;2022-07-22T11:39:08;0.30;;;0.30;;
12818;SDS011;6474;53.474;9.894;2022-07-22T11:41:40;0.50;;;0.50;;
12818;SDS011;6474;53.474;9.894;2022-07-22T11:44:08;0.68;;;0.68;;
12818;SDS011;6474;53.474;9.894;2022-07-22T11:46:38;0.50;;;0.50;;
12818;SDS011;6474;53.474;9.894;2022-07-22T11:49:12;1.70;;;0.65;;
12818;SDS011;6474;53.474;9.894;2022-07-22T11:51:42;0.65;;;0.57;;
12818;SDS011;6474;53.474;9.894;2022-07-22T11:54:14;0.60;;;0.60;;
12818;SDS011;6474;53.474;9.894;2022-07-22T11:56:42;0.30;;;0.30;;
12818;SDS011;6474;53.474;9.894;2022-07-22T11:59:11;0.30;;;0.30;;
12818;SDS011;6474;53.474;9.894;2022-07-22T12:01:46;0.30;;;0.30;;
12818;SDS011;6474;53.474;9.894;2022-07-22T12:04:15;0.60;;;0.60;;
12818;SDS011;6474;53.474;9.894;2022-07-22T12:06:45;0.98;;;0.70;;
12818;SDS011;6474;53.474;9.894;2022-07-22T12:09:14;0.50;;;0.50;;
12818;SDS011;6474;53.474;9.894;2022-07-22T12:11:47;0.45;;;0.45;;
12818;SDS011;6474;53.474;9.894;2022-07-22T12:14:17;0.88;;;0.88;;
12818;SDS011;6474;53.474;9.894;2022-07-22T12:16:54;0.40;;;0.40;;
12818;SDS011;6474;53.474;9.894;2022-07-22T12:19:23;0.40;;;0.40;;
12818;SDS011;6474;53.474;9.894;2022-07-22T12:21:56;0.30;;;0.30;;
12818;SDS011;6474;53.474;9.894;2022-07-22T12:24:27;0.50;;;0.50;;
12818;SDS011;6474;53.474;9.894;2022-07-22T12:26:57;0.75;;;0.63;;
12818;SDS011;6474;53.474;9.894;2022-07-22T12:29:29;0.70;;;0.50;;
12818;SDS011;6474;53.474;9.894;2022-07-22T12:32:03;0.40;;;0.40;;
12818;SDS011;6474;53.474;9.894;2022-07-22T12:34:35;0.52;;;0.52;;
12818;SDS011;6474;53.474;9.894;2022-07-22T12:37:14;0.60;;;0.60;;
12818;SDS011;6474;53.474;9.894;2022-07-22T12:39:54;0.47;;;0.47;;
12818;SDS011;6474;53.474;9.894;2022-07-22T12:42:23;0.73;;;0.73;;
12818;SDS011;6474;53.474;9.894;2022-07-22T12:44:58;0.45;;;0.45;;
12818;SDS011;6474;53.474;9.894;2022-07-22T12:47:39;0.50;;;0.50;;
12818;SDS011;6474;53.474;9.894;2022-07-22T12:50:26;0.70;;;0.70;;
12818;SDS011;6474;53.474;9.894;2022-07-22T12:52:58;0.47;;;0.47;;
12818;SDS011;6474;53.474;9.894;2022-07-22T12:55:45;0.60;;;0.60;;
12818;SDS011;6474;53.474;9.894;2022-07-22T12:58:15;0.65;;;0.65;;
12818;SDS011;6474;53.474;9.894;2022-07-22T13:00:46;0.70;;;0.70;;
12818;SDS011;6474;53.474;9.894;2022-07-22T13:03:20;0.60;;;0.60;;
12818;SDS011;6474;53.474;9.894;2022-07-22T13:05:52;0.60;;;0.60;;
12818;SDS011;6474;53.474;9.894;2022-07-22T13:08:22;0.75;;;0.75;;
12818;SDS011;6474;53.474;9.894;2022-07-22T13:10:51;0.80;;;0.80;;
12818;SDS011;6474;53.474;9.894;2022-07-22T13:13:22;0.60;;;0.60;;
12818;SDS011;6474;53.474;9.894;2022-07-22T13:15:50;0.75;;;0.75;;
12818;SDS011;6474;53.474;9.894;2022-07-22T13:18:20;0.68;;;0.65;;
12818;SDS011;6474;53.474;9.894;2022-07-22T13:20:48;1.08;;;0.60;;
12818;SDS011;6474;53.474;9.894;2022-07-22T13:23:16;0.85;;;0.63;;
12818;SDS011;6474;53.474;9.894;2022-07-22T13:25:47;0.40;;;0.40;;
12818;SDS011;6474;53.474;9.894;2022-07-22T13:28:20;0.60;;;0.60;;
12818;SDS011;6474;53.474;9.894;2022-07-22T13:30:48;0.60;;;0.60;;
12818;SDS011;6474;53.474;9.894;2022-07-22T13:33:16;0.50;;;0.50;;
12818;SDS011;6474;53.474;9.894;2022-07-22T13:35:47;0.70;;;0.70;;
12818;SDS011;6474;53.474;9.894;2022-07-22T13:38:14;0.30;;;0.30;;
12818;SDS011;6474;53.474;9.894;2022-07-22T13:40:43;0.73;;;0.73;;
12818;SDS011;6474;53.474;9.894;2022-07-22T13:43:17;0.95;;;0.40;;
12818;SDS011;6474;53.474;9.894;2022-07-22T13:45:45;0.60;;;0.60;;
12818;SDS011;6474;53.474;9.894;2022-07-22T13:48:13;0.80;;;0.80;;
12818;SDS011;6474;53.474;9.894;2022-07-22T13:50:41;2.08;;;0.60;;
12818;SDS011;6474;53.474;9.894;2022-07-22T13:53:12;0.70;;;0.70;;
12818;SDS011;6474;53.474;9.894;2022-07-22T13:55:40;0.40;;;0.40;;
12818;SDS011;6474;53.474;9.894;2022-07-22T13:58:08;0.30;;;0.30;;
12818;SDS011;6474;53.474;9.894;2022-07-22T14:00:36;0.80;;;0.80;;
12818;SDS011;6474;53.474;9.894;2022-07-22T14:03:04;0.40;;;0.40;;
12818;SDS011;6474;53.474;9.894;2022-07-22T14:05:32;1.02;;;0.70;;
12818;SDS011;6474;53.474;9.894;2022-07-22T14:08:00;0.88;;;0.88;;
12818;SDS011;6474;53.474;9.894;2022-07-22T14:10:29;0.55;;;0.55;;
12818;SDS011;6474;53.474;9.894;2022-07-22T14:12:57;1.10;;;1.10;;
12818;SDS011;6474;53.474;9.894;2022-07-22T14:15:26;2.47;;;1.10;;
12818;SDS011;6474;53.474;9.894;2022-07-22T14:17:55;1.08;;;1.08;;
12818;SDS011;6474;53.474;9.894;2022-07-22T14:20:23;0.80;;;0.80;;
12818;SDS011;6474;53.474;9.894;2022-07-22T14:22:51;3.42;;;1.40;;
12818;SDS011;6474;53.474;9.894;2022-07-22T14:25:19;1.00;;;1.00;;
12818;SDS011;6474;53.474;9.894;2022-07-22T14:27:48;0.50;;;0.50;;
12818;SDS011;6474;53.474;9.894;2022-07-22T14:30:35;0.88;;;0.88;;
12818;SDS011;6474;53.474;9.894;2022-07-22T14:33:04;1.65;;;1.27;;
12818;SDS011;6474;53.474;9.894;2022-07-22T14:35:31;0.70;;;0.70;;
12818;SDS011;6474;53.474;9.894;2022-07-22T14:38:00;0.70;;;0.70;;
12818;SDS011;6474;53.474;9.894;2022-07-22T14:40:28;0.70;;;0.70;;
12818;SDS011;6474;53.474;9.894;2022-07-22T14:42:59;0.63;;;0.63;;
12818;SDS011;6474;53.474;9.894;2022-07-22T14:45:46;0.70;;;0.70;;
12818;SDS011;6474;53.474;9.894;2022-07-22T14:48:14;0.70;;;0.70;;
12818;SDS011;6474;53.474;9.894;2022-07-22T14:50:42;0.60;;;0.60;;
12818;SDS011;6474;53.474;9.894;2022-07-22T14:53:10;0.60;;;0.60;;
12818;SDS011;6474;53.474;9.894;2022-07-22T14:55:38;0.52;;;0.52;;
12818;SDS011;6474;53.474;9.894;2022-07-22T14:58:08;0.40;;;0.40;;
12818;SDS011;6474;53.474;9.894;2022-07-22T15:00:38;0.40;;;0.40;;
12818;SDS011;6474;53.474;9.894;2022-07-22T15:03:06;0.35;;;0.35;;
12818;SDS011;6474;53.474;9.894;2022-07-22T15:05:34;0.40;;;0.40;;
12818;SDS011;6474;53.474;9.894;2022-07-22T15:08:02;1.48;;;0.60;;
12818;SDS011;6474;53.474;9.894;2022-07-22T15:10:30;0.60;;;0.60;;
12818;SDS011;6474;53.474;9.894;2022-07-22T15:12:58;0.60;;;0.60;;
12818;SDS011;6474;53.474;9.894;2022-07-22T15:15:31;1.05;;;0.65;;
12818;SDS011;6474;53.474;9.894;2022-07-22T15:18:00;0.85;;;0.70;;
12818;SDS011;6474;53.474;9.894;2022-07-22T15:20:28;0.60;;;0.60;;
12818;SDS011;6474;53.474;9.894;2022-07-22T15:22:58;0.70;;;0.70;;
12818;SDS011;6474;53.474;9.894;2022-07-22T15:25:28;0.57;;;0.57;;
12818;SDS011;6474;53.474;9.894;2022-07-22T15:27:56;0.50;;;0.47;;